Time;durP1;ratioP1;P1;durP2;ratioP2;P2;SDS_P1;SDS_P2;PMS_P1;PMS_P2;Temp;Humidity;BMP_temperature;BMP_pressure;BME280_temperature;BME280_humidity;BME280_pressure;Samples;Min_cycle;Max_cycle;Signal;HPM_P1;HPM_P2
2021/11/24 00:01:38;;;;;;;;;;;7.40;99.90;;;;;;5030481;28;19920;-71
2021/11/24 00:04:03;;;;;;;;;;;7.40;99.90;;;;;;5032240;28;20390;-68
2021/11/24 00:06:29;;;;;;;;;;;7.40;99.90;;;;;;5030996;28;20292;-68
2021/11/24 00:08:54;;;;;;;;;;;7.40;99.90;;;;;;5029223;28;20260;-68
2021/11/24 00:11:20;;;;;;;;;;;7.40;99.90;;;;;;5013708;28;19992;-68
2021/11/24 00:13:45;;;;;;;;;;;7.40;99.90;;;;;;5014153;28;19918;-68
2021/11/24 00:16:11;;;;;;;;;;;7.40;99.90;;;;;;5028685;28;19928;-68
2021/11/24 00:18:37;;;;;;;;;;;7.40;99.90;;;;;;5031249;28;19909;-68
2021/11/24 00:21:03;;;;;;;;;;;7.40;99.90;;;;;;5031096;28;19913;-68
2021/11/24 00:23:28;;;;;;;;;;;7.40;99.90;;;;;;5029937;28;19932;-67
2021/11/24 00:25:54;;;;;;;;;;;7.40;99.90;;;;;;5011680;28;20265;-68
2021/11/24 00:28:19;;;;;;;;;;;7.40;99.90;;;;;;5031265;28;20287;-67
2021/11/24 00:30:46;;;;;;;;;;;7.40;99.90;;;;;;5031422;28;19920;-68
2021/11/24 00:33:12;;;;;;;;;;;7.40;99.90;;;;;;5031016;28;19913;-68
2021/11/24 00:35:39;;;;;;;;;;;7.40;99.90;;;;;;5030770;28;19944;-68
2021/11/24 00:38:06;;;;;;;;;;;7.40;99.90;;;;;;5029245;28;22435;-71
2021/11/24 00:40:31;;;;;;;;;;;7.40;99.90;;;;;;5030524;28;19919;-71
2021/11/24 00:42:57;;;;;;;;;;;7.40;99.90;;;;;;5029944;28;19924;-71
2021/11/24 00:45:22;;;;;;;;;;;7.40;99.90;;;;;;5021042;28;19921;-71
2021/11/24 00:47:48;;;;;;;;;;;7.40;99.90;;;;;;5031342;28;19952;-71
2021/11/24 00:50:14;;;;;;;;;;;7.40;99.90;;;;;;5030253;28;19993;-71
2021/11/24 00:52:39;;;;;;;;;;;7.40;99.90;;;;;;5012920;28;20012;-71
2021/11/24 00:55:05;;;;;;;;;;;7.30;99.90;;;;;;5030693;28;19921;-71
2021/11/24 01:00:05;;;;;;;;;;;7.40;99.90;;;;;;5028222;28;20017;-71
2021/11/24 01:02:30;;;;;;;;;;;7.40;99.90;;;;;;5028952;28;20411;-71
2021/11/24 01:04:55;;;;;;;;;;;7.40;99.90;;;;;;5029963;28;19909;-71
2021/11/24 01:07:21;;;;;;;;;;;7.40;99.90;;;;;;5028635;28;20283;-71
2021/11/24 01:09:51;;;;;;;;;;;7.40;99.90;;;;;;5029946;28;20418;-71
2021/11/24 01:12:17;;;;;;;;;;;7.40;99.90;;;;;;5029602;28;19913;-71
2021/11/24 01:14:43;;;;;;;;;;;7.40;99.90;;;;;;5029173;28;20016;-71
2021/11/24 01:17:08;;;;;;;;;;;7.40;99.90;;;;;;5028759;28;20356;-71
2021/11/24 01:19:34;;;;;;;;;;;7.40;99.90;;;;;;5012825;28;19909;-71
2021/11/24 01:21:59;;;;;;;;;;;7.40;99.90;;;;;;5029271;28;19921;-71
2021/11/24 01:24:25;;;;;;;;;;;7.40;99.90;;;;;;5030016;28;19913;-71
2021/11/24 01:26:50;;;;;;;;;;;7.40;99.90;;;;;;5030007;28;20422;-72
2021/11/24 01:29:15;;;;;;;;;;;7.40;99.90;;;;;;5028262;28;19945;-73
2021/11/24 01:31:41;;;;;;;;;;;7.40;99.90;;;;;;5028560;28;19924;-73
2021/11/24 01:34:06;;;;;;;;;;;7.40;99.90;;;;;;5028386;28;19959;-73
2021/11/24 01:36:32;;;;;;;;;;;7.40;99.90;;;;;;5028043;28;19913;-73
2021/11/24 01:38:57;;;;;;;;;;;7.40;99.90;;;;;;5028484;28;19970;-73
2021/11/24 01:41:23;;;;;;;;;;;7.40;99.90;;;;;;5028517;28;19913;-73
2021/11/24 01:43:48;;;;;;;;;;;7.40;99.90;;;;;;5029746;28;19924;-73
2021/11/24 01:46:13;;;;;;;;;;;7.40;99.90;;;;;;5025091;28;19913;-73
2021/11/24 01:48:39;;;;;;;;;;;7.40;99.90;;;;;;5028582;28;19963;-73
2021/11/24 01:51:04;;;;;;;;;;;7.40;99.90;;;;;;5028470;28;19996;-73
2021/11/24 01:53:30;;;;;;;;;;;7.40;99.90;;;;;;5026991;28;19913;-73
2021/11/24 01:55:56;;;;;;;;;;;7.40;99.90;;;;;;5028405;28;20315;-73
2021/11/24 01:58:23;;;;;;;;;;;7.40;99.90;;;;;;5027497;28;19917;-73
2021/11/24 02:00:48;;;;;;;;;;;7.40;99.90;;;;;;5025157;28;20483;-73
2021/11/24 02:03:14;;;;;;;;;;;7.40;99.90;;;;;;5027468;28;19909;-73
2021/11/24 02:05:39;;;;;;;;;;;7.40;99.90;;;;;;5029184;28;19971;-73
2021/11/24 02:08:05;;;;;;;;;;;7.40;99.90;;;;;;5028864;28;20364;-73
2021/11/24 02:10:30;;;;;;;;;;;7.40;99.90;;;;;;5028205;28;19913;-73
2021/11/24 02:12:56;;;;;;;;;;;7.40;99.90;;;;;;5028646;28;19917;-73
2021/11/24 02:15:21;;;;;;;;;;;7.40;99.90;;;;;;5027627;28;19917;-68
2021/11/24 02:17:47;;;;;;;;;;;7.40;99.90;;;;;;5028337;28;19923;-68
2021/11/24 02:20:16;;;;;;;;;;;7.40;99.90;;;;;;5029307;28;19905;-68
2021/11/24 02:22:42;;;;;;;;;;;7.40;99.90;;;;;;5027013;28;20371;-68
2021/11/24 02:25:08;;;;;;;;;;;7.40;99.90;;;;;;5003467;28;19909;-68
2021/11/24 02:27:33;;;;;;;;;;;7.40;99.90;;;;;;5028453;28;20375;-68
2021/11/24 02:29:58;;;;;;;;;;;7.40;99.90;;;;;;5028531;28;20340;-68
2021/11/24 02:32:24;;;;;;;;;;;7.40;99.90;;;;;;5025267;28;19925;-68
2021/11/24 02:34:49;;;;;;;;;;;7.40;99.90;;;;;;5027632;28;19992;-71
2021/11/24 02:37:15;;;;;;;;;;;7.40;99.90;;;;;;5028426;28;20054;-71
2021/11/24 02:39:40;;;;;;;;;;;7.40;99.90;;;;;;5027711;28;20350;-71
2021/11/24 02:42:06;;;;;;;;;;;7.50;99.90;;;;;;5027705;28;19909;-73
2021/11/24 02:44:34;;;;;;;;;;;7.40;99.90;;;;;;5027315;28;19917;-73
2021/11/24 02:47:05;;;;;;;;;;;7.40;99.90;;;;;;5028116;28;19939;-73
2021/11/24 02:49:35;;;;;;;;;;;7.50;99.90;;;;;;5025171;28;19956;-73
2021/11/24 02:52:00;;;;;;;;;;;7.40;99.90;;;;;;5026047;28;20394;-73
2021/11/24 02:54:25;;;;;;;;;;;7.40;99.90;;;;;;5009461;28;19917;-73
2021/11/24 02:56:51;;;;;;;;;;;7.50;99.90;;;;;;5027100;28;19913;-73
2021/11/24 02:59:16;;;;;;;;;;;7.40;99.90;;;;;;5028585;28;19929;-73
2021/11/24 03:01:42;;;;;;;;;;;7.40;99.90;;;;;;5028439;28;19913;-73
2021/11/24 03:04:07;;;;;;;;;;;7.40;99.90;;;;;;5025480;28;19913;-73
2021/11/24 03:06:33;;;;;;;;;;;7.40;99.90;;;;;;5028059;28;19920;-73
2021/11/24 03:08:59;;;;;;;;;;;7.40;99.90;;;;;;5002458;28;19956;-73
2021/11/24 03:11:24;;;;;;;;;;;7.40;99.90;;;;;;5010241;28;19913;-73
2021/11/24 03:13:50;;;;;;;;;;;7.40;99.90;;;;;;5029810;28;19931;-73
2021/11/24 03:16:15;;;;;;;;;;;7.40;99.90;;;;;;5031093;28;19917;-73
2021/11/24 03:18:40;;;;;;;;;;;7.40;99.90;;;;;;5032451;28;19913;-73
2021/11/24 03:21:06;;;;;;;;;;;7.30;99.90;;;;;;5029908;28;19917;-73
2021/11/24 03:23:31;;;;;;;;;;;7.30;99.90;;;;;;5031135;28;19913;-73
2021/11/24 03:25:57;;;;;;;;;;;7.30;99.90;;;;;;5031713;28;19921;-73
2021/11/24 03:28:22;;;;;;;;;;;7.30;99.90;;;;;;5031702;28;19915;-73
2021/11/24 03:30:47;;;;;;;;;;;7.30;99.90;;;;;;5012284;28;19913;-73
2021/11/24 03:33:13;;;;;;;;;;;7.40;99.90;;;;;;5028335;28;19924;-73
2021/11/24 03:35:39;;;;;;;;;;;7.30;99.90;;;;;;5030742;28;20368;-73
2021/11/24 03:38:05;;;;;;;;;;;7.40;99.90;;;;;;5031244;28;19979;-71
2021/11/24 03:40:31;;;;;;;;;;;7.30;99.90;;;;;;5031186;28;19909;-73
2021/11/24 03:42:57;;;;;;;;;;;7.30;99.90;;;;;;5030784;28;19921;-73
2021/11/24 03:45:27;;;;;;;;;;;7.30;99.90;;;;;;5029896;28;20084;-72
2021/11/24 03:47:53;;;;;;;;;;;7.30;99.90;;;;;;5029693;28;20015;-73
2021/11/24 03:50:18;;;;;;;;;;;7.30;99.90;;;;;;5030609;28;20455;-73
2021/11/24 03:52:44;;;;;;;;;;;7.30;99.90;;;;;;5029744;28;20066;-73
2021/11/24 03:55:10;;;;;;;;;;;7.30;99.90;;;;;;5032641;28;19964;-73
2021/11/24 03:57:35;;;;;;;;;;;7.20;99.90;;;;;;5032124;28;19917;-73
2021/11/24 04:00:01;;;;;;;;;;;7.30;99.90;;;;;;5031238;28;19917;-73
2021/11/24 04:02:26;;;;;;;;;;;7.30;99.90;;;;;;5031183;28;19917;-73
2021/11/24 04:04:52;;;;;;;;;;;7.30;99.90;;;;;;5032601;28;19909;-73
2021/11/24 04:07:18;;;;;;;;;;;7.30;99.90;;;;;;5031646;28;19924;-71
2021/11/24 04:09:43;;;;;;;;;;;7.30;99.90;;;;;;5030132;28;19924;-71
2021/11/24 04:12:09;;;;;;;;;;;7.30;99.90;;;;;;5029422;28;20125;-71
2021/11/24 04:14:34;;;;;;;;;;;7.30;99.90;;;;;;5031495;28;19921;-71
2021/11/24 04:16:59;;;;;;;;;;;7.30;99.90;;;;;;5031215;28;19913;-71
2021/11/24 04:19:25;;;;;;;;;;;7.30;99.90;;;;;;5030756;28;19916;-71
2021/11/24 04:21:51;;;;;;;;;;;7.30;99.90;;;;;;5030780;28;19909;-71
2021/11/24 04:24:18;;;;;;;;;;;7.30;99.90;;;;;;5028935;28;19913;-71
2021/11/24 04:26:43;;;;;;;;;;;7.30;99.90;;;;;;5028982;28;19917;-71
2021/11/24 04:29:09;;;;;;;;;;;7.30;99.90;;;;;;5028937;28;20189;-71
2021/11/24 04:31:34;;;;;;;;;;;7.30;99.90;;;;;;5029484;28;19921;-71
2021/11/24 04:34:00;;;;;;;;;;;7.30;99.90;;;;;;5029819;28;19963;-71
2021/11/24 04:36:25;;;;;;;;;;;7.30;99.90;;;;;;5028851;28;19930;-71
2021/11/24 04:38:51;;;;;;;;;;;7.30;99.90;;;;;;5010810;28;19920;-71
2021/11/24 04:41:16;;;;;;;;;;;7.30;99.90;;;;;;5027392;28;19917;-71
2021/11/24 04:43:47;;;;;;;;;;;7.30;99.90;;;;;;5030028;28;19974;-71
2021/11/24 04:46:14;;;;;;;;;;;7.30;99.90;;;;;;5030763;28;19913;-71
2021/11/24 04:48:39;;;;;;;;;;;7.30;99.90;;;;;;5031488;28;19913;-71
2021/11/24 04:51:05;;;;;;;;;;;7.30;99.90;;;;;;5031264;28;19971;-71
2021/11/24 04:53:31;;;;;;;;;;;7.40;99.90;;;;;;5030264;28;19944;-71
2021/11/24 04:55:56;;;;;;;;;;;7.30;99.90;;;;;;5030331;28;19920;-71
2021/11/24 04:58:22;;;;;;;;;;;7.30;99.90;;;;;;5030900;28;19917;-71
2021/11/24 05:00:47;;;;;;;;;;;7.30;99.90;;;;;;5023671;28;19943;-71
2021/11/24 05:03:13;;;;;;;;;;;7.30;99.90;;;;;;5025843;28;19913;-71
2021/11/24 05:05:38;;;;;;;;;;;7.30;99.90;;;;;;5029476;28;19964;-71
2021/11/24 05:08:04;;;;;;;;;;;7.30;99.90;;;;;;5010426;28;19963;-71
2021/11/24 05:10:29;;;;;;;;;;;7.30;99.90;;;;;;5024648;28;20035;-71
2021/11/24 05:12:55;;;;;;;;;;;7.30;99.90;;;;;;5030472;28;20570;-71
2021/11/24 05:15:25;;;;;;;;;;;7.30;99.90;;;;;;5025860;28;19950;-71
2021/11/24 05:17:55;;;;;;;;;;;7.30;99.90;;;;;;5030202;28;20367;-71
2021/11/24 05:20:24;;;;;;;;;;;7.20;99.90;;;;;;5022654;28;19948;-71
2021/11/24 05:22:50;;;;;;;;;;;7.20;99.90;;;;;;5025725;28;20487;-71
2021/11/24 05:25:16;;;;;;;;;;;7.30;99.90;;;;;;5025928;28;19917;-71
2021/11/24 05:27:41;;;;;;;;;;;7.30;99.90;;;;;;5027611;28;19924;-71
2021/11/24 05:30:09;;;;;;;;;;;7.20;99.90;;;;;;5023014;28;20007;-71
2021/11/24 05:32:35;;;;;;;;;;;7.20;99.90;;;;;;5010697;28;19924;-71
2021/11/24 05:35:00;;;;;;;;;;;7.10;99.90;;;;;;5023852;28;19917;-71
2021/11/24 05:37:26;;;;;;;;;;;7.10;99.90;;;;;;5020658;28;20023;-71
2021/11/24 05:39:51;;;;;;;;;;;7.10;99.90;;;;;;5028066;28;20287;-71
2021/11/24 05:42:17;;;;;;;;;;;7.10;99.90;;;;;;5027995;28;19987;-71
2021/11/24 05:44:47;;;;;;;;;;;7.10;99.90;;;;;;5028599;28;20027;-71
2021/11/24 05:47:49;;;;;;;;;;;7.10;99.90;;;;;;5026640;28;19920;-71
2021/11/24 05:49:58;;;;;;;;;;;7.20;99.90;;;;;;5028715;28;20113;-71
2021/11/24 05:52:23;;;;;;;;;;;7.20;99.90;;;;;;5028360;28;20268;-71
2021/11/24 05:54:48;;;;;;;;;;;7.20;99.90;;;;;;5027471;28;19924;-74
2021/11/24 05:57:16;;;;;;;;;;;7.10;99.90;;;;;;5023750;28;19917;-77
2021/11/24 05:59:41;;;;;;;;;;;7.10;99.90;;;;;;5026734;28;20376;-75
2021/11/24 06:02:07;;;;;;;;;;;7.10;99.90;;;;;;5019096;28;19917;-75
2021/11/24 06:04:32;;;;;;;;;;;7.10;99.90;;;;;;5025202;28;19917;-76
2021/11/24 06:06:58;;;;;;;;;;;7.10;99.90;;;;;;5028412;28;19921;-75
2021/11/24 06:09:23;;;;;;;;;;;7.20;99.90;;;;;;5024402;28;19917;-75
2021/11/24 06:11:48;;;;;;;;;;;7.20;99.90;;;;;;5025534;28;19924;-73
2021/11/24 06:14:14;;;;;;;;;;;7.10;99.90;;;;;;5022152;28;19921;-77
2021/11/24 06:16:39;;;;;;;;;;;7.10;99.90;;;;;;5005825;28;19932;-78
2021/11/24 06:19:05;;;;;;;;;;;7.10;99.90;;;;;;5029312;28;19910;-80
2021/11/24 06:21:30;;;;;;;;;;;7.20;99.90;;;;;;5014787;28;20007;-80
2021/11/24 06:23:56;;;;;;;;;;;7.20;99.90;;;;;;5011065;28;19909;-80
2021/11/24 06:26:22;;;;;;;;;;;7.20;99.90;;;;;;5007823;28;19921;-80
2021/11/24 06:28:48;;;;;;;;;;;7.20;99.90;;;;;;5026519;28;19913;-80
2021/11/24 06:31:14;;;;;;;;;;;7.20;99.90;;;;;;5028805;28;19920;-80
2021/11/24 06:33:40;;;;;;;;;;;7.20;99.90;;;;;;5026200;28;19917;-80
2021/11/24 06:36:06;;;;;;;;;;;7.20;99.90;;;;;;5011135;28;20038;-80
2021/11/24 06:38:31;;;;;;;;;;;7.20;99.90;;;;;;5028194;28;19920;-80
2021/11/24 06:40:56;;;;;;;;;;;7.20;99.90;;;;;;5030542;28;19962;-80
2021/11/24 06:43:22;;;;;;;;;;;7.20;99.90;;;;;;5007373;28;19918;-80
2021/11/24 06:45:47;;;;;;;;;;;7.20;99.90;;;;;;5012352;28;19909;-80
2021/11/24 06:48:13;;;;;;;;;;;7.20;99.90;;;;;;5024215;28;19917;-77
2021/11/24 06:50:38;;;;;;;;;;;7.30;99.90;;;;;;5021865;28;20398;-83
2021/11/24 06:53:04;;;;;;;;;;;7.30;99.90;;;;;;5022335;28;19913;-78
2021/11/24 06:55:29;;;;;;;;;;;7.30;99.90;;;;;;5023719;28;20361;-78
2021/11/24 07:00:26;;;;;;;;;;;7.20;99.90;;;;;;5043827;28;20016;-72
2021/11/24 07:02:52;;;;;;;;;;;7.20;99.90;;;;;;5046552;28;20371;-72
2021/11/24 07:05:17;;;;;;;;;;;7.20;99.90;;;;;;5043877;28;19913;-72
2021/11/24 07:07:43;;;;;;;;;;;7.20;99.90;;;;;;5046050;28;20611;-72
2021/11/24 07:10:08;;;;;;;;;;;7.20;99.90;;;;;;5034796;28;19928;-73
2021/11/24 07:12:34;;;;;;;;;;;7.20;99.90;;;;;;5036769;28;20334;-72
2021/11/24 07:14:59;;;;;;;;;;;7.30;99.90;;;;;;5034428;28;20043;-71
2021/11/24 07:17:25;;;;;;;;;;;7.30;99.90;;;;;;5036363;28;20004;-71
2021/11/24 07:19:50;;;;;;;;;;;7.30;99.90;;;;;;5038265;28;20290;-71
2021/11/24 07:22:16;;;;;;;;;;;7.30;99.90;;;;;;5036193;28;20288;-71
2021/11/24 07:24:41;;;;;;;;;;;7.30;99.90;;;;;;5034712;28;19917;-72
2021/11/24 07:27:07;;;;;;;;;;;7.30;99.90;;;;;;5034946;28;19917;-72
2021/11/24 07:29:32;;;;;;;;;;;7.30;99.90;;;;;;5037156;28;20336;-72
2021/11/24 07:31:58;;;;;;;;;;;7.30;99.90;;;;;;5035931;28;19913;-72
2021/11/24 07:34:24;;;;;;;;;;;7.30;99.90;;;;;;5036702;28;20012;-71
2021/11/24 07:36:49;;;;;;;;;;;7.30;99.90;;;;;;5037583;28;19921;-72
2021/11/24 07:39:15;;;;;;;;;;;7.30;99.90;;;;;;5037439;28;19927;-72
2021/11/24 07:41:40;;;;;;;;;;;7.40;99.90;;;;;;5034955;28;20360;-71
2021/11/24 07:44:06;;;;;;;;;;;7.40;99.90;;;;;;5034962;28;19913;-74
2021/11/24 07:46:31;;;;;;;;;;;7.40;99.90;;;;;;5034492;28;19913;-75
2021/11/24 07:48:57;;;;;;;;;;;7.40;99.90;;;;;;5038321;28;19917;-74
2021/11/24 07:51:23;;;;;;;;;;;7.50;99.90;;;;;;5034822;28;19923;-74
2021/11/24 07:53:48;;;;;;;;;;;7.50;99.90;;;;;;5035310;28;19917;-75
2021/11/24 07:56:14;;;;;;;;;;;7.50;99.90;;;;;;5036769;28;19959;-74
2021/11/24 07:58:41;;;;;;;;;;;7.50;99.90;;;;;;5035550;28;19913;-75
2021/11/24 08:01:07;;;;;;;;;;;7.50;99.90;;;;;;5035573;28;20353;-75
2021/11/24 08:03:33;;;;;;;;;;;7.50;99.90;;;;;;5039637;28;19919;-74
2021/11/24 08:05:58;;;;;;;;;;;7.50;99.90;;;;;;5041819;28;19917;-74
2021/11/24 08:08:24;;;;;;;;;;;7.50;99.90;;;;;;5036423;28;20036;-74
2021/11/24 08:10:49;;;;;;;;;;;7.50;99.90;;;;;;5040512;28;20019;-72
2021/11/24 08:13:16;;;;;;;;;;;7.50;99.90;;;;;;5039184;28;19927;-72
2021/11/24 08:15:41;;;;;;;;;;;7.50;99.90;;;;;;5041738;28;20387;-72
2021/11/24 08:18:07;;;;;;;;;;;7.50;99.90;;;;;;5038066;28;19958;-72
2021/11/24 08:20:32;;;;;;;;;;;7.50;99.90;;;;;;5039007;28;20015;-73
2021/11/24 08:22:58;;;;;;;;;;;7.50;99.90;;;;;;5027311;28;19924;-73
2021/11/24 08:25:23;;;;;;;;;;;7.60;99.90;;;;;;5038080;28;19974;-73
2021/11/24 08:27:48;;;;;;;;;;;7.60;99.90;;;;;;5040175;28;20491;-73
2021/11/24 08:30:14;;;;;;;;;;;7.60;99.90;;;;;;5038732;28;19920;-75
2021/11/24 08:32:39;;;;;;;;;;;7.60;99.90;;;;;;5037812;28;19920;-72
2021/11/24 08:35:06;;;;;;;;;;;7.70;99.90;;;;;;5037599;28;19925;-72
2021/11/24 08:37:31;;;;;;;;;;;7.60;99.90;;;;;;5041465;28;19962;-72
2021/11/24 08:39:57;;;;;;;;;;;7.70;99.90;;;;;;5040820;28;19959;-72
2021/11/24 08:42:25;;;;;;;;;;;7.70;99.90;;;;;;5040378;28;21040;-72
2021/11/24 08:44:51;;;;;;;;;;;7.70;99.90;;;;;;5039239;28;19917;-71
2021/11/24 08:47:17;;;;;;;;;;;7.70;99.90;;;;;;5038506;28;19913;-72
2021/11/24 08:49:42;;;;;;;;;;;7.80;99.90;;;;;;5037340;28;19921;-72
2021/11/24 08:52:08;;;;;;;;;;;7.80;99.90;;;;;;5039608;28;19924;-72
2021/11/24 08:54:33;;;;;;;;;;;7.80;99.90;;;;;;5040897;28;19909;-73
2021/11/24 08:56:59;;;;;;;;;;;7.80;99.90;;;;;;5039971;28;20354;-72
2021/11/24 08:59:25;;;;;;;;;;;7.80;99.90;;;;;;5040395;28;20012;-73
2021/11/24 09:01:50;;;;;;;;;;;7.80;99.90;;;;;;5040364;28;19959;-72
2021/11/24 09:04:16;;;;;;;;;;;7.80;99.90;;;;;;5039835;28;19948;-72
2021/11/24 09:06:41;;;;;;;;;;;7.90;99.90;;;;;;5040822;28;20006;-71
2021/11/24 09:09:07;;;;;;;;;;;7.90;99.90;;;;;;5038325;28;19923;-73
2021/11/24 09:11:33;;;;;;;;;;;7.90;99.90;;;;;;5039651;28;19909;-72
2021/11/24 09:13:58;;;;;;;;;;;7.90;99.90;;;;;;5040441;28;19916;-72
2021/11/24 09:16:23;;;;;;;;;;;8.00;99.90;;;;;;5040042;28;20325;-73
2021/11/24 09:18:49;;;;;;;;;;;8.00;99.90;;;;;;5038674;28;19916;-74
2021/11/24 09:21:14;;;;;;;;;;;8.00;99.90;;;;;;5039758;28;19913;-73
2021/11/24 09:23:43;;;;;;;;;;;8.00;99.90;;;;;;5038499;28;19925;-74
2021/11/24 09:26:25;;;;;;;;;;;8.10;99.90;;;;;;5039791;28;19908;-73
2021/11/24 09:28:50;;;;;;;;;;;8.10;99.90;;;;;;5039198;28;19923;-72
2021/11/24 09:31:17;;;;;;;;;;;8.10;99.90;;;;;;5038564;28;19913;-72
2021/11/24 09:33:42;;;;;;;;;;;8.10;99.90;;;;;;5039792;28;19917;-73
2021/11/24 09:36:09;;;;;;;;;;;8.20;99.90;;;;;;5039081;28;19975;-74
2021/11/24 09:38:35;;;;;;;;;;;8.20;99.90;;;;;;5037318;28;19925;-73
2021/11/24 09:41:03;;;;;;;;;;;8.30;99.90;;;;;;5039020;28;20235;-74
2021/11/24 09:43:30;;;;;;;;;;;8.30;99.90;;;;;;5032328;28;20392;-73
2021/11/24 09:45:56;;;;;;;;;;;8.30;99.90;;;;;;5035781;28;19967;-72
2021/11/24 09:48:21;;;;;;;;;;;8.40;99.90;;;;;;5037938;28;19917;-73
2021/11/24 09:50:48;;;;;;;;;;;8.40;99.90;;;;;;5036163;28;19917;-73
2021/11/24 09:53:14;;;;;;;;;;;8.40;99.90;;;;;;5039027;28;19917;-74
2021/11/24 09:55:40;;;;;;;;;;;8.50;99.90;;;;;;5038242;28;19920;-74
2021/11/24 09:58:06;;;;;;;;;;;8.50;99.90;;;;;;5037912;28;20398;-73
2021/11/24 10:00:32;;;;;;;;;;;8.50;99.90;;;;;;5037032;28;20297;-74
2021/11/24 10:02:58;;;;;;;;;;;8.60;99.90;;;;;;5037221;28;19917;-74
2021/11/24 10:05:26;;;;;;;;;;;8.60;99.90;;;;;;5038299;28;19913;-74
2021/11/24 10:07:52;;;;;;;;;;;8.60;99.90;;;;;;5038240;28;20368;-74
2021/11/24 10:10:17;;;;;;;;;;;8.70;99.90;;;;;;5039077;28;19912;-74
2021/11/24 10:12:43;;;;;;;;;;;8.70;99.90;;;;;;5036013;28;19916;-73
2021/11/24 10:15:11;;;;;;;;;;;8.70;99.90;;;;;;5053217;28;19976;-74
2021/11/24 10:17:37;;;;;;;;;;;8.80;99.90;;;;;;5037216;28;19913;-73
2021/11/24 10:20:07;;;;;;;;;;;8.80;99.90;;;;;;5034105;28;20269;-74
2021/11/24 10:22:42;;;;;;;;;;;8.80;99.90;;;;;;5036411;28;19920;-73
2021/11/24 10:25:09;;;;;;;;;;;8.80;99.90;;;;;;5037982;28;19913;-75
2021/11/24 10:27:43;;;;;;;;;;;8.80;99.90;;;;;;5036938;28;19924;-75
2021/11/24 10:30:10;;;;;;;;;;;8.80;99.90;;;;;;5038283;28;20442;-74
2021/11/24 10:32:36;;;;;;;;;;;8.80;99.90;;;;;;5038668;28;19967;-72
2021/11/24 10:35:03;;;;;;;;;;;8.80;99.90;;;;;;5036796;28;19925;-72
2021/11/24 10:37:28;;;;;;;;;;;8.80;99.90;;;;;;5034956;28;20024;-74
2021/11/24 10:39:58;;;;;;;;;;;8.80;99.90;;;;;;5039282;28;20384;-74
2021/11/24 10:42:34;;;;;;;;;;;8.80;99.90;;;;;;5035965;28;19917;-72
2021/11/24 10:45:11;;;;;;;;;;;8.90;99.90;;;;;;5036405;28;20367;-74
2021/11/24 10:47:53;;;;;;;;;;;8.90;99.90;;;;;;5038557;28;19917;-74
2021/11/24 10:50:20;;;;;;;;;;;8.90;99.90;;;;;;5037830;28;19920;-74
2021/11/24 10:52:46;;;;;;;;;;;8.90;99.90;;;;;;5036256;28;19917;-74
2021/11/24 10:55:14;;;;;;;;;;;9.00;99.90;;;;;;5037520;28;19924;-74
2021/11/24 10:57:41;;;;;;;;;;;9.00;99.90;;;;;;5035632;28;19921;-75
2021/11/24 11:00:09;;;;;;;;;;;9.00;99.90;;;;;;5033786;28;19952;-73
2021/11/24 11:02:37;;;;;;;;;;;9.00;99.90;;;;;;5036617;28;19960;-73
2021/11/24 11:05:10;;;;;;;;;;;9.00;99.90;;;;;;5035608;28;19913;-73
2021/11/24 11:07:56;;;;;;;;;;;9.00;99.90;;;;;;5036633;28;19913;-73
2021/11/24 11:10:26;;;;;;;;;;;9.00;99.90;;;;;;5033245;28;20376;-72
2021/11/24 11:13:02;;;;;;;;;;;9.00;99.90;;;;;;5035253;28;19916;-72
2021/11/24 11:15:33;;;;;;;;;;;9.10;99.90;;;;;;5037919;28;19963;-70
2021/11/24 11:17:59;;;;;;;;;;;9.10;99.90;;;;;;5045177;28;19921;-72
2021/11/24 11:20:27;;;;;;;;;;;9.00;99.90;;;;;;5032401;28;19913;-72
2021/11/24 11:22:53;;;;;;;;;;;9.10;99.90;;;;;;5036260;28;19917;-72
2021/11/24 11:25:19;;;;;;;;;;;9.10;99.90;;;;;;5035193;28;19975;-72
2021/11/24 11:27:45;;;;;;;;;;;9.10;99.90;;;;;;5038502;28;20383;-72
2021/11/24 11:30:10;;;;;;;;;;;9.00;99.90;;;;;;5038227;28;20445;-72
2021/11/24 11:32:36;;;;;;;;;;;9.00;99.90;;;;;;5037026;28;19913;-72
2021/11/24 11:35:02;;;;;;;;;;;9.00;99.90;;;;;;5029322;28;19916;-72
2021/11/24 11:37:28;;;;;;;;;;;9.00;99.90;;;;;;5040804;28;19921;-72
2021/11/24 11:39:54;;;;;;;;;;;9.00;99.90;;;;;;5040673;28;19921;-72
2021/11/24 11:42:19;;;;;;;;;;;9.00;99.90;;;;;;5037143;28;20379;-72
2021/11/24 11:44:45;;;;;;;;;;;9.00;99.90;;;;;;5037060;28;20345;-72
2021/11/24 11:47:10;;;;;;;;;;;9.00;99.90;;;;;;5040190;28;19939;-71
2021/11/24 11:49:37;;;;;;;;;;;9.00;99.90;;;;;;5039568;28;20341;-70
2021/11/24 11:52:08;;;;;;;;;;;9.00;99.90;;;;;;5040068;28;19920;-73
2021/11/24 11:54:33;;;;;;;;;;;9.00;99.90;;;;;;5040167;28;19967;-71
2021/11/24 11:57:01;;;;;;;;;;;9.00;99.90;;;;;;5038198;28;19952;-72
2021/11/24 11:59:35;;;;;;;;;;;9.00;99.90;;;;;;5037715;28;20366;-72
2021/11/24 12:02:03;;;;;;;;;;;9.00;99.90;;;;;;5040656;28;19921;-71
2021/11/24 12:04:40;;;;;;;;;;;9.10;99.90;;;;;;5040854;28;20004;-71
2021/11/24 12:07:10;;;;;;;;;;;9.00;99.90;;;;;;5039245;28;19913;-71
2021/11/24 12:09:48;;;;;;;;;;;9.10;99.90;;;;;;5040022;28;19914;-70
2021/11/24 12:12:18;;;;;;;;;;;9.10;99.70;;;;;;5038399;28;20291;-71
2021/11/24 12:14:59;;;;;;;;;;;9.10;99.90;;;;;;5039874;28;19917;-71
2021/11/24 12:17:29;;;;;;;;;;;9.10;99.50;;;;;;5040328;28;19913;-72
2021/11/24 12:20:00;;;;;;;;;;;9.10;99.40;;;;;;5038723;28;20284;-72
2021/11/24 12:25:18;;;;;;;;;;;9.10;98.90;;;;;;5040726;28;19978;-72
2021/11/24 12:27:50;;;;;;;;;;;9.10;98.80;;;;;;5040843;28;20160;-72
2021/11/24 12:33:12;;;;;;;;;;;9.10;98.70;;;;;;5039647;28;19955;-72
2021/11/24 12:35:39;;;;;;;;;;;9.10;98.60;;;;;;5039151;28;19919;-71
2021/11/24 12:38:05;;;;;;;;;;;9.00;98.40;;;;;;5040431;28;19947;-71
2021/11/24 12:40:32;;;;;;;;;;;9.00;98.40;;;;;;5032770;28;19917;-71
2021/11/24 12:42:58;;;;;;;;;;;9.00;98.20;;;;;;5036683;28;19923;-71
2021/11/24 12:45:24;;;;;;;;;;;9.00;98.40;;;;;;5038807;28;19913;-72
2021/11/24 12:47:56;;;;;;;;;;;9.00;98.20;;;;;;5036506;28;19984;-71
2021/11/24 12:50:25;;;;;;;;;;;9.10;98.20;;;;;;5040483;28;19923;-71
2021/11/24 12:52:56;;;;;;;;;;;9.10;98.40;;;;;;5038561;28;19912;-71
2021/11/24 12:55:21;;;;;;;;;;;9.10;98.20;;;;;;5038995;28;19922;-71
2021/11/24 12:57:47;;;;;;;;;;;9.00;98.20;;;;;;5038717;28;20272;-71
2021/11/24 13:00:25;;;;;;;;;;;9.10;98.20;;;;;;5038652;22;20420;-65
2021/11/24 13:02:51;;;;;;;;;;;9.10;98.20;;;;;;5024062;28;19936;-63
2021/11/24 13:05:16;;;;;;;;;;;9.10;97.90;;;;;;5026198;28;19924;-65
2021/11/24 13:07:49;;;;;;;;;;;9.00;97.80;;;;;;5024125;28;19921;-64
2021/11/24 13:10:16;;;;;;;;;;;9.00;98.00;;;;;;5027947;28;19913;-66
2021/11/24 13:12:41;;;;;;;;;;;9.00;97.90;;;;;;5023476;28;20365;-63
2021/11/24 13:15:08;;;;;;;;;;;9.00;97.50;;;;;;5026886;28;19924;-64
2021/11/24 13:17:35;;;;;;;;;;;9.00;97.50;;;;;;5025385;28;20441;-66
2021/11/24 13:20:03;;;;;;;;;;;9.00;98.00;;;;;;5027916;28;19913;-64
2021/11/24 13:22:47;;;;;;;;;;;9.00;98.10;;;;;;5018455;28;19920;-65
2021/11/24 13:25:18;;;;;;;;;;;9.00;98.30;;;;;;5026307;28;19997;-66
2021/11/24 13:27:47;;;;;;;;;;;9.00;98.50;;;;;;5019752;28;20385;-63
2021/11/24 13:30:15;;;;;;;;;;;8.90;98.40;;;;;;5023991;28;20448;-63
2021/11/24 13:33:00;;;;;;;;;;;8.90;98.50;;;;;;5009153;28;19919;-66
2021/11/24 13:35:26;;;;;;;;;;;8.90;98.70;;;;;;5023529;28;19928;-64
2021/11/24 13:37:52;;;;;;;;;;;8.90;99.00;;;;;;5024249;28;19920;-64
2021/11/24 13:40:31;;;;;;;;;;;8.90;99.10;;;;;;5023094;28;20007;-64
2021/11/24 13:42:57;;;;;;;;;;;8.90;99.00;;;;;;5023857;28;19940;-64
2021/11/24 13:45:30;;;;;;;;;;;8.90;98.80;;;;;;5022021;28;20389;-66
2021/11/24 13:48:06;;;;;;;;;;;8.80;98.80;;;;;;5026255;28;19917;-63
2021/11/24 13:50:32;;;;;;;;;;;8.80;98.90;;;;;;5024464;28;20434;-64
2021/11/24 13:53:17;;;;;;;;;;;8.80;98.90;;;;;;5024109;28;19991;-65
2021/11/24 13:55:42;;;;;;;;;;;8.70;98.90;;;;;;5020324;28;20499;-63
2021/11/24 13:58:08;;;;;;;;;;;8.70;99.20;;;;;;5026199;28;19913;-63
2021/11/24 14:00:33;;;;;;;;;;;8.70;99.20;;;;;;5023456;28;19921;-65
2021/11/24 14:02:59;;;;;;;;;;;8.70;99.20;;;;;;5023080;28;20249;-62
2021/11/24 14:05:24;;;;;;;;;;;8.70;99.30;;;;;;5026078;28;20301;-64
2021/11/24 14:07:50;;;;;;;;;;;8.70;99.30;;;;;;5025738;28;20004;-66
2021/11/24 14:10:17;;;;;;;;;;;8.70;99.40;;;;;;5025024;28;19996;-63
2021/11/24 14:12:43;;;;;;;;;;;8.70;99.30;;;;;;5023840;28;19921;-63
2021/11/24 14:15:12;;;;;;;;;;;8.70;99.40;;;;;;5024932;28;19924;-64
2021/11/24 14:17:39;;;;;;;;;;;8.70;99.50;;;;;;5025097;28;19913;-66
2021/11/24 14:20:25;;;;;;;;;;;8.70;99.50;;;;;;5025618;28;20009;-64
2021/11/24 14:22:52;;;;;;;;;;;8.60;99.40;;;;;;5006249;28;19917;-63
2021/11/24 14:25:20;;;;;;;;;;;8.70;99.70;;;;;;5025434;28;19967;-64
2021/11/24 14:27:46;;;;;;;;;;;8.60;99.60;;;;;;5020792;28;19923;-63
2021/11/24 14:30:14;;;;;;;;;;;8.60;99.50;;;;;;5025147;28;20362;-63
2021/11/24 14:32:40;;;;;;;;;;;8.60;99.60;;;;;;5000820;28;20007;-63
2021/11/24 14:35:06;;;;;;;;;;;8.50;99.60;;;;;;5020401;28;20012;-64
2021/11/24 14:37:32;;;;;;;;;;;8.60;99.70;;;;;;5024717;28;19917;-64
2021/11/24 14:39:57;;;;;;;;;;;8.50;99.40;;;;;;5023747;28;19917;-62